createdAt,value
2022-11-23T00:00:34.351Z,100.00
2022-11-23T00:01:56.702Z,100.00
2022-11-23T00:02:59.811Z,100.00
2022-11-23T00:04:05.940Z,100.00
2022-11-23T00:05:09.301Z,100.00
2022-11-23T00:06:11.346Z,100.00
2022-11-23T00:07:13.771Z,100.00
2022-11-23T00:08:15.643Z,100.00
2022-11-23T00:09:17.990Z,100.00
2022-11-23T00:10:20.027Z,100.00
2022-11-23T00:11:25.024Z,100.00
2022-11-23T00:12:26.914Z,100.00
2022-11-23T00:13:29.041Z,100.00
2022-11-23T00:14:31.333Z,100.00
2022-11-23T00:15:33.575Z,100.00
2022-11-23T00:16:35.996Z,100.00
2022-11-23T00:17:38.147Z,100.00
2022-11-23T00:18:40.187Z,100.00
2022-11-23T00:19:41.944Z,100.00
2022-11-23T00:20:44.891Z,100.00
2022-11-23T00:21:46.651Z,100.00
2022-11-23T00:22:48.463Z,100.00
2022-11-23T00:23:50.762Z,100.00
2022-11-23T00:24:52.573Z,100.00
2022-11-23T00:25:54.320Z,100.00
2022-11-23T00:26:56.089Z,100.00
2022-11-23T00:27:57.929Z,100.00
2022-11-23T00:28:59.829Z,100.00
2022-11-23T00:30:04.503Z,100.00
2022-11-23T00:31:07.576Z,100.00
2022-11-23T00:32:09.451Z,100.00
2022-11-23T00:33:12.361Z,100.00
2022-11-23T00:34:15.702Z,100.00
2022-11-23T00:35:17.515Z,100.00
2022-11-23T00:36:20.896Z,100.00
2022-11-23T00:37:22.622Z,100.00
2022-11-23T00:38:24.361Z,100.00
2022-11-23T00:39:26.493Z,100.00
2022-11-23T00:40:28.277Z,100.00
2022-11-23T00:41:30.193Z,100.00
2022-11-23T00:42:36.642Z,100.00
2022-11-23T00:43:40.684Z,100.00
2022-11-23T00:44:42.610Z,100.00
2022-11-23T00:45:44.450Z,100.00
2022-11-23T00:46:46.334Z,100.00
2022-11-23T00:47:48.092Z,100.00
2022-11-23T00:48:52.215Z,100.00
2022-11-23T00:49:54.307Z,100.00
2022-11-23T00:50:56.064Z,100.00
2022-11-23T00:51:57.825Z,100.00
2022-11-23T00:53:00.020Z,100.00
2022-11-23T00:54:03.821Z,100.00
2022-11-23T00:55:05.971Z,100.00
2022-11-23T00:56:07.938Z,100.00
2022-11-23T00:57:09.835Z,100.00
2022-11-23T00:58:11.549Z,100.00
2022-11-23T00:59:13.283Z,100.00
2022-11-23T01:00:16.619Z,100.00
2022-11-23T01:01:22.056Z,100.00
2022-11-23T01:02:23.973Z,100.00
2022-11-23T01:03:26.100Z,100.00
2022-11-23T01:04:29.138Z,100.00
2022-11-23T01:05:36.674Z,100.00
2022-11-23T01:06:40.316Z,100.00
2022-11-23T01:07:42.368Z,100.00
2022-11-23T01:08:52.711Z,100.00
2022-11-23T01:09:54.514Z,100.00
2022-11-23T01:11:02.061Z,100.00
2022-11-23T01:12:03.876Z,100.00
2022-11-23T01:13:05.636Z,100.00
2022-11-23T01:14:07.985Z,100.00
2022-11-23T01:15:09.893Z,100.00
2022-11-23T01:16:30.133Z,100.00
2022-11-23T01:17:31.841Z,100.00
2022-11-23T01:18:33.606Z,100.00
2022-11-23T01:19:36.102Z,100.00
2022-11-23T01:20:37.967Z,100.00
2022-11-23T01:21:39.988Z,100.00
2022-11-23T01:22:42.010Z,100.00
2022-11-23T01:23:44.236Z,100.00
2022-11-23T01:24:46.098Z,100.00
2022-11-23T01:25:49.260Z,100.00
2022-11-23T01:26:54.518Z,100.00
2022-11-23T01:27:56.346Z,100.00
2022-11-23T01:28:58.178Z,100.00
2022-11-23T01:30:00.046Z,100.00
2022-11-23T01:31:16.242Z,100.00
2022-11-23T01:32:19.799Z,100.00
2022-11-23T01:33:21.515Z,100.00
2022-11-23T01:34:23.223Z,100.00
2022-11-23T01:35:25.262Z,100.00
2022-11-23T01:36:30.781Z,100.00
2022-11-23T01:37:32.595Z,100.00
2022-11-23T01:38:34.716Z,100.00
2022-11-23T01:39:36.449Z,100.00
2022-11-23T01:40:44.039Z,100.00
2022-11-23T01:41:45.968Z,100.00
2022-11-23T01:42:58.221Z,100.00
2022-11-23T01:44:00.452Z,100.00
2022-11-23T01:45:40.546Z,100.00
2022-11-23T01:46:42.296Z,100.00
2022-11-23T01:47:44.263Z,100.00
2022-11-23T01:49:04.472Z,100.00
2022-11-23T01:50:06.652Z,100.00
2022-11-23T01:51:23.355Z,100.00
2022-11-23T01:52:26.794Z,100.00
2022-11-23T01:53:31.691Z,100.00
2022-11-23T01:54:45.499Z,100.00
2022-11-23T01:55:49.598Z,100.00
2022-11-23T01:56:58.832Z,100.00
2022-11-23T01:58:02.231Z,100.00
2022-11-23T01:59:11.673Z,100.00
2022-11-23T02:00:14.038Z,100.00
2022-11-23T02:01:16.524Z,100.00
2022-11-23T02:02:19.488Z,100.00
2022-11-23T02:03:22.963Z,100.00
2022-11-23T02:04:33.011Z,100.00
2022-11-23T02:05:41.571Z,100.00
2022-11-23T02:06:47.433Z,100.00
2022-11-23T02:07:51.318Z,100.00
2022-11-23T02:08:54.093Z,100.00
2022-11-23T02:09:56.111Z,100.00
2022-11-23T02:10:59.576Z,100.00
2022-11-23T02:12:01.383Z,100.00
2022-11-23T02:13:11.338Z,100.00
2022-11-23T02:14:15.169Z,100.00
2022-11-23T02:15:18.629Z,100.00
2022-11-23T02:16:20.451Z,100.00
2022-11-23T02:17:22.337Z,100.00
2022-11-23T02:18:30.453Z,100.00
2022-11-23T02:19:56.071Z,100.00
2022-11-23T02:21:03.739Z,100.00
2022-11-23T02:22:14.496Z,100.00
2022-11-23T02:23:25.057Z,100.00
2022-11-23T02:24:35.649Z,100.00
2022-11-23T02:25:43.163Z,100.00
2022-11-23T02:26:45.255Z,100.00
2022-11-23T02:27:47.839Z,100.00
2022-11-23T02:29:14.431Z,100.00
2022-11-23T02:30:16.167Z,100.00
2022-11-23T02:31:18.014Z,100.00
2022-11-23T02:32:24.279Z,100.00
2022-11-23T02:33:30.592Z,100.00
2022-11-23T02:34:32.549Z,100.00
2022-11-23T02:35:34.917Z,100.00
2022-11-23T02:36:40.616Z,100.00
2022-11-23T02:37:43.874Z,100.00
2022-11-23T02:38:45.699Z,100.00
2022-11-23T02:39:53.375Z,100.00
2022-11-23T02:40:55.432Z,100.00
2022-11-23T02:41:58.877Z,100.00
2022-11-23T02:43:01.966Z,100.00
2022-11-23T02:44:09.141Z,100.00
2022-11-23T02:45:41.391Z,100.00
2022-11-23T02:46:43.579Z,100.00
2022-11-23T02:47:45.810Z,100.00
2022-11-23T02:48:47.578Z,100.00
2022-11-23T02:49:49.965Z,100.00
2022-11-23T02:50:52.637Z,100.00
2022-11-23T02:51:54.564Z,100.00
2022-11-23T02:52:59.332Z,100.00
2022-11-23T02:54:01.047Z,100.00
2022-11-23T02:55:02.810Z,100.00
2022-11-23T02:56:05.322Z,100.00
2022-11-23T02:57:08.038Z,100.00
2022-11-23T02:58:09.825Z,100.00
2022-11-23T02:59:11.660Z,100.00
2022-11-23T03:00:13.975Z,100.00
2022-11-23T03:01:17.252Z,100.00
2022-11-23T03:02:21.381Z,100.00
2022-11-23T03:03:23.130Z,100.00
2022-11-23T03:04:27.947Z,100.00
2022-11-23T03:05:30.719Z,100.00
2022-11-23T03:06:32.581Z,100.00
2022-11-23T03:07:34.787Z,100.00
2022-11-23T03:08:36.568Z,100.00
2022-11-23T03:09:38.450Z,100.00
2022-11-23T03:10:40.684Z,100.00
2022-11-23T03:11:42.999Z,100.00
2022-11-23T03:12:45.061Z,100.00
2022-11-23T03:13:48.239Z,100.00
2022-11-23T03:14:50.613Z,100.00
2022-11-23T03:15:56.842Z,100.00
2022-11-23T03:17:01.632Z,100.00
2022-11-23T03:18:06.584Z,100.00
2022-11-23T03:19:08.529Z,100.00
2022-11-23T03:20:10.923Z,100.00
2022-11-23T03:21:14.841Z,100.00
2022-11-23T03:22:16.769Z,100.00
2022-11-23T03:23:18.552Z,100.00
2022-11-23T03:24:20.368Z,100.00
2022-11-23T03:25:22.629Z,100.00
2022-11-23T03:26:25.826Z,100.00
2022-11-23T03:27:35.003Z,100.00
2022-11-23T03:28:37.972Z,100.00
2022-11-23T03:29:39.903Z,100.00
2022-11-23T03:30:45.479Z,100.00
2022-11-23T03:31:47.251Z,100.00
2022-11-23T03:32:50.069Z,100.00
2022-11-23T03:33:52.625Z,100.00
2022-11-23T03:34:54.450Z,100.00
2022-11-23T03:35:56.565Z,100.00
2022-11-23T03:37:03.150Z,100.00
2022-11-23T03:38:06.141Z,100.00
2022-11-23T03:39:08.188Z,100.00
2022-11-23T03:40:28.282Z,100.00
2022-11-23T03:41:48.538Z,100.00
2022-11-23T03:42:50.342Z,100.00
2022-11-23T03:43:52.237Z,100.00
2022-11-23T03:44:54.000Z,100.00
2022-11-23T03:45:55.726Z,100.00
2022-11-23T03:46:57.534Z,100.00
2022-11-23T03:47:59.538Z,100.00
2022-11-23T03:49:01.449Z,100.00
2022-11-23T03:50:03.486Z,100.00
2022-11-23T03:51:06.208Z,100.00
2022-11-23T03:52:07.982Z,100.00
2022-11-23T03:53:09.809Z,100.00
2022-11-23T03:54:12.211Z,100.00
2022-11-23T03:55:14.057Z,100.00
2022-11-23T03:56:15.845Z,100.00
2022-11-23T03:57:20.203Z,100.00
2022-11-23T03:58:22.592Z,100.00
2022-11-23T03:59:24.537Z,100.00
2022-11-23T04:00:28.046Z,100.00
2022-11-23T04:01:31.568Z,100.00
2022-11-23T04:02:36.637Z,100.00
2022-11-23T04:03:41.557Z,100.00
2022-11-23T04:04:49.245Z,100.00
2022-11-23T04:06:23.055Z,100.00
2022-11-23T04:07:32.608Z,100.00
2022-11-23T04:08:36.829Z,100.00
2022-11-23T04:09:42.004Z,100.00
2022-11-23T04:11:06.753Z,100.00
2022-11-23T04:12:13.345Z,100.00
2022-11-23T04:13:15.167Z,100.00
2022-11-23T04:14:17.515Z,100.00
2022-11-23T04:15:19.750Z,100.00
2022-11-23T04:16:21.547Z,100.00
2022-11-23T04:17:24.500Z,100.00
2022-11-23T04:18:26.243Z,100.00
2022-11-23T04:19:28.898Z,100.00
2022-11-23T04:20:31.029Z,100.00
2022-11-23T04:21:32.943Z,100.00
2022-11-23T04:22:34.751Z,100.00
2022-11-23T04:23:36.539Z,100.00
2022-11-23T04:24:38.543Z,100.00
2022-11-23T04:25:41.348Z,100.00
2022-11-23T04:26:43.251Z,100.00
2022-11-23T04:27:46.507Z,100.00
2022-11-23T04:28:48.654Z,100.00
2022-11-23T04:29:50.543Z,100.00
2022-11-23T04:30:52.591Z,100.00
2022-11-23T04:31:54.514Z,100.00
2022-11-23T04:32:56.803Z,100.00
2022-11-23T04:33:58.830Z,100.00
2022-11-23T04:35:01.036Z,100.00
2022-11-23T04:36:02.992Z,100.00
2022-11-23T04:37:06.824Z,100.00
2022-11-23T04:38:13.086Z,100.00
2022-11-23T04:39:14.846Z,100.00
2022-11-23T04:40:57.290Z,100.00
2022-11-23T04:41:59.701Z,100.00
2022-11-23T04:43:02.344Z,100.00
2022-11-23T04:44:06.598Z,100.00
2022-11-23T04:45:09.076Z,100.00
2022-11-23T04:46:11.909Z,100.00
2022-11-23T04:47:14.214Z,100.00
2022-11-23T04:48:15.985Z,100.00
2022-11-23T04:49:18.077Z,100.00
2022-11-23T04:50:19.831Z,100.00
2022-11-23T04:51:24.926Z,100.00
2022-11-23T04:52:27.717Z,100.00
2022-11-23T04:53:29.463Z,100.00
2022-11-23T04:54:31.395Z,100.00
2022-11-23T04:55:35.206Z,100.00
2022-11-23T04:56:37.264Z,100.00
2022-11-23T04:57:39.016Z,100.00
2022-11-23T04:58:41.160Z,100.00
2022-11-23T04:59:42.886Z,100.00
2022-11-23T05:00:44.755Z,100.00
2022-11-23T05:01:47.756Z,100.00
2022-11-23T05:03:09.473Z,100.00
2022-11-23T05:04:17.727Z,100.00
2022-11-23T05:05:20.853Z,100.00
2022-11-23T05:06:22.740Z,100.00
2022-11-23T05:07:24.755Z,100.00
2022-11-23T05:08:31.402Z,100.00
2022-11-23T05:09:49.002Z,100.00
2022-11-23T05:10:52.911Z,100.00
2022-11-23T05:11:54.709Z,100.00
2022-11-23T05:12:56.834Z,100.00
2022-11-23T05:13:58.572Z,100.00
2022-11-23T05:15:00.575Z,100.00
2022-11-23T05:16:07.320Z,100.00
2022-11-23T05:17:09.376Z,100.00
2022-11-23T05:18:12.355Z,100.00
2022-11-23T05:19:17.438Z,100.00
2022-11-23T05:20:19.608Z,100.00
2022-11-23T05:21:23.060Z,100.00
2022-11-23T05:22:25.065Z,100.00
2022-11-23T05:23:27.962Z,100.00
2022-11-23T05:24:30.572Z,100.00
2022-11-23T05:25:39.158Z,100.00
2022-11-23T05:26:42.951Z,100.00
2022-11-23T05:27:44.800Z,100.00
2022-11-23T05:28:46.744Z,100.00
2022-11-23T05:29:49.167Z,100.00
2022-11-23T05:30:51.019Z,100.00
2022-11-23T05:31:52.765Z,100.00
2022-11-23T05:32:54.582Z,100.00
2022-11-23T05:33:56.849Z,100.00
2022-11-23T05:35:08.787Z,100.00
2022-11-23T05:36:13.917Z,100.00
2022-11-23T05:37:16.333Z,100.00
2022-11-23T05:38:25.562Z,100.00
2022-11-23T05:39:27.632Z,100.00
2022-11-23T05:40:29.538Z,100.00
2022-11-23T05:41:32.704Z,100.00
2022-11-23T05:42:35.951Z,100.00
2022-11-23T05:43:43.818Z,100.00
2022-11-23T05:44:48.024Z,100.00
2022-11-23T05:45:54.890Z,100.00
2022-11-23T05:46:57.358Z,100.00
2022-11-23T05:47:59.666Z,100.00
2022-11-23T05:49:10.409Z,100.00
2022-11-23T05:50:12.806Z,100.00
2022-11-23T05:51:16.602Z,100.00
2022-11-23T05:52:20.050Z,100.00
2022-11-23T05:53:23.229Z,100.00
2022-11-23T05:54:28.956Z,100.00
2022-11-23T05:55:40.903Z,100.00
2022-11-23T05:56:43.149Z,100.00
2022-11-23T05:57:54.319Z,100.00
2022-11-23T05:58:56.675Z,100.00
2022-11-23T05:59:58.766Z,100.00
2022-11-23T06:01:14.410Z,100.00
2022-11-23T06:02:16.265Z,100.00
2022-11-23T06:03:18.226Z,100.00
2022-11-23T06:04:20.580Z,100.00
2022-11-23T06:05:22.344Z,100.00
2022-11-23T06:06:24.687Z,100.00
2022-11-23T06:07:26.658Z,100.00
2022-11-23T06:08:34.406Z,100.00
2022-11-23T06:09:36.394Z,100.00
2022-11-23T06:10:41.468Z,100.00
2022-11-23T06:11:44.649Z,100.00
2022-11-23T06:12:50.138Z,100.00
2022-11-23T06:13:52.762Z,100.00
2022-11-23T06:14:54.977Z,100.00
2022-11-23T06:15:58.339Z,100.00
2022-11-23T06:17:06.188Z,100.00
2022-11-23T06:18:14.279Z,100.00
2022-11-23T06:19:20.411Z,100.00
2022-11-23T06:20:22.367Z,100.00
2022-11-23T06:21:30.834Z,100.00
2022-11-23T06:22:32.711Z,100.00
2022-11-23T06:23:36.430Z,100.00
2022-11-23T06:24:38.512Z,100.00
2022-11-23T06:26:02.599Z,100.00
2022-11-23T06:27:07.999Z,100.00
2022-11-23T06:28:09.836Z,100.00
2022-11-23T06:29:17.246Z,100.00
2022-11-23T06:30:19.110Z,100.00
2022-11-23T06:31:21.544Z,100.00
2022-11-23T06:32:23.398Z,100.00
2022-11-23T06:33:25.151Z,100.00
2022-11-23T06:34:27.859Z,100.00
2022-11-23T06:35:29.724Z,100.00
2022-11-23T06:36:31.503Z,100.00
2022-11-23T06:37:33.325Z,100.00
2022-11-23T06:38:36.009Z,100.00
2022-11-23T06:39:59.466Z,100.00
2022-11-23T06:41:02.963Z,100.00
2022-11-23T06:42:36.728Z,100.00
2022-11-23T06:43:28.753Z,100.00
2022-11-23T06:44:30.531Z,100.00
2022-11-23T06:45:32.588Z,100.00
2022-11-23T06:46:36.714Z,100.00
2022-11-23T06:47:38.857Z,100.00
2022-11-23T06:48:45.821Z,100.00
2022-11-23T06:49:48.256Z,100.00
2022-11-23T06:50:59.127Z,100.00
2022-11-23T06:52:01.168Z,100.00
2022-11-23T06:53:03.084Z,100.00
2022-11-23T06:54:10.944Z,100.00
2022-11-23T06:55:12.838Z,100.00
2022-11-23T06:56:14.991Z,100.00
2022-11-23T06:57:17.103Z,100.00
2022-11-23T06:58:19.340Z,100.00
2022-11-23T06:59:21.495Z,100.00
2022-11-23T07:00:23.478Z,100.00
2022-11-23T07:01:25.476Z,100.00
2022-11-23T07:02:31.100Z,100.00
2022-11-23T07:03:33.339Z,100.00
2022-11-23T07:04:39.495Z,100.00
2022-11-23T07:05:43.241Z,100.00
2022-11-23T07:06:45.085Z,100.00
2022-11-23T07:07:55.242Z,100.00
2022-11-23T07:09:00.777Z,100.00
2022-11-23T07:10:13.721Z,100.00
2022-11-23T07:11:21.448Z,100.00
2022-11-23T07:12:23.520Z,100.00
2022-11-23T07:13:25.299Z,100.00
2022-11-23T07:14:27.071Z,100.00
2022-11-23T07:15:30.495Z,100.00
2022-11-23T07:16:32.467Z,100.00
2022-11-23T07:17:39.431Z,100.00
2022-11-23T07:18:41.180Z,100.00
2022-11-23T07:19:43.028Z,100.00
2022-11-23T07:20:45.528Z,100.00
2022-11-23T07:21:48.230Z,100.00
2022-11-23T07:23:05.838Z,100.00
2022-11-23T07:24:07.776Z,100.00
2022-11-23T07:25:11.436Z,100.00
2022-11-23T07:26:13.384Z,100.00
2022-11-23T07:27:18.025Z,100.00
2022-11-23T07:28:20.031Z,100.00
2022-11-23T07:29:21.799Z,100.00
2022-11-23T07:30:29.119Z,100.00
2022-11-23T07:31:31.635Z,100.00
2022-11-23T07:32:33.467Z,100.00
2022-11-23T07:33:35.521Z,100.00
2022-11-23T07:34:37.487Z,100.00
2022-11-23T07:35:41.339Z,100.00
2022-11-23T07:36:43.421Z,100.00
2022-11-23T07:37:46.066Z,100.00
2022-11-23T07:38:48.009Z,100.00
2022-11-23T07:39:57.795Z,100.00
2022-11-23T07:41:03.520Z,100.00
2022-11-23T07:42:34.477Z,100.00
2022-11-23T07:43:38.902Z,100.00
2022-11-23T07:44:42.351Z,100.00
2022-11-23T07:45:44.736Z,100.00
2022-11-23T07:46:53.522Z,100.00
2022-11-23T07:48:00.446Z,100.00
2022-11-23T07:49:02.368Z,100.00
2022-11-23T07:50:06.333Z,100.00
2022-11-23T07:51:08.260Z,100.00
2022-11-23T07:52:10.664Z,100.00
2022-11-23T07:53:12.475Z,100.00
2022-11-23T07:54:15.713Z,100.00
2022-11-23T07:55:17.853Z,100.00
2022-11-23T07:56:19.881Z,100.00
2022-11-23T07:57:21.629Z,100.00
2022-11-23T07:58:23.455Z,100.00
2022-11-23T07:59:25.165Z,100.00
2022-11-23T08:00:28.946Z,100.00
2022-11-23T08:01:31.623Z,100.00
2022-11-23T08:02:33.588Z,100.00
2022-11-23T08:03:35.803Z,100.00
2022-11-23T08:04:37.670Z,100.00
2022-11-23T08:05:39.454Z,100.00
2022-11-23T08:06:41.230Z,100.00
2022-11-23T08:07:45.084Z,100.00
2022-11-23T08:08:47.099Z,100.00
2022-11-23T08:09:48.837Z,100.00
2022-11-23T08:10:53.991Z,100.00
2022-11-23T08:11:56.324Z,100.00
2022-11-23T08:12:59.709Z,100.00
2022-11-23T08:14:01.457Z,100.00
2022-11-23T08:15:03.639Z,100.00
2022-11-23T08:16:05.727Z,100.00
2022-11-23T08:17:07.639Z,100.00
2022-11-23T08:18:09.597Z,100.00
2022-11-23T08:19:11.370Z,100.00
2022-11-23T08:20:13.466Z,100.00
2022-11-23T08:21:15.187Z,100.00
2022-11-23T08:22:16.971Z,100.00
2022-11-23T08:23:20.431Z,100.00
2022-11-23T08:24:22.582Z,100.00
2022-11-23T08:25:29.424Z,100.00
2022-11-23T08:26:31.244Z,100.00
2022-11-23T08:27:33.018Z,100.00
2022-11-23T08:28:34.959Z,100.00
2022-11-23T08:29:36.809Z,100.00
2022-11-23T08:30:39.404Z,100.00
2022-11-23T08:31:41.209Z,100.00
2022-11-23T08:32:42.959Z,100.00
2022-11-23T08:33:45.211Z,100.00
2022-11-23T08:34:47.014Z,100.00
2022-11-23T08:35:48.776Z,100.00
2022-11-23T08:36:50.506Z,100.00
2022-11-23T08:37:52.292Z,100.00
2022-11-23T08:38:54.425Z,100.00
2022-11-23T08:39:56.486Z,100.00
2022-11-23T08:41:00.202Z,100.00
2022-11-23T08:42:02.112Z,100.00
2022-11-23T08:43:04.661Z,100.00
2022-11-23T08:44:09.868Z,100.00
2022-11-23T08:45:11.927Z,100.00
2022-11-23T08:46:14.136Z,100.00
2022-11-23T08:47:16.148Z,100.00
2022-11-23T08:48:17.985Z,100.00
2022-11-23T08:49:19.923Z,100.00
2022-11-23T08:50:21.979Z,100.00
2022-11-23T08:51:23.761Z,100.00
2022-11-23T08:52:26.188Z,100.00
2022-11-23T08:53:28.025Z,100.00
2022-11-23T08:54:30.485Z,100.00
2022-11-23T08:55:32.648Z,100.00
2022-11-23T08:56:34.496Z,100.00
2022-11-23T08:57:36.674Z,100.00
2022-11-23T08:58:38.477Z,100.00
2022-11-23T08:59:40.431Z,100.00
2022-11-23T09:00:42.312Z,100.00
2022-11-23T09:01:45.556Z,100.00
2022-11-23T09:02:47.699Z,100.00
2022-11-23T09:03:49.742Z,100.00
2022-11-23T09:04:51.688Z,100.00
2022-11-23T09:05:54.739Z,100.00
2022-11-23T09:06:57.386Z,100.00
2022-11-23T09:08:02.240Z,100.00
2022-11-23T09:09:03.963Z,100.00
2022-11-23T09:10:06.705Z,100.00
2022-11-23T09:11:12.361Z,100.00
2022-11-23T09:12:14.119Z,100.00
2022-11-23T09:13:15.832Z,100.00
2022-11-23T09:14:17.597Z,100.00
2022-11-23T09:15:20.383Z,100.00
2022-11-23T09:16:22.450Z,100.00
2022-11-23T09:17:24.212Z,100.00
2022-11-23T09:18:28.168Z,100.00
2022-11-23T09:19:30.059Z,100.00
2022-11-23T09:20:31.931Z,100.00
2022-11-23T09:21:36.138Z,100.00
2022-11-23T09:22:39.027Z,100.00
2022-11-23T09:23:40.813Z,100.00
2022-11-23T09:24:42.559Z,100.00
2022-11-23T09:25:47.790Z,100.00
2022-11-23T09:26:49.675Z,100.00
2022-11-23T09:27:58.214Z,100.00
2022-11-23T09:29:00.093Z,100.00
2022-11-23T09:30:02.444Z,100.00
2022-11-23T09:31:05.129Z,100.00
2022-11-23T09:32:07.016Z,100.00
2022-11-23T09:33:09.130Z,100.00
2022-11-23T09:34:14.126Z,100.00
2022-11-23T09:35:16.015Z,100.00
2022-11-23T09:36:17.798Z,100.00
2022-11-23T09:37:19.531Z,100.00
2022-11-23T09:38:38.309Z,100.00
2022-11-23T09:39:43.571Z,100.00
2022-11-23T09:40:45.321Z,100.00
2022-11-23T09:42:13.394Z,100.00
2022-11-23T09:43:36.409Z,100.00
2022-11-23T09:45:08.802Z,100.00
2022-11-23T09:46:36.967Z,100.00
2022-11-23T09:47:51.528Z,100.00
2022-11-23T09:49:35.599Z,100.00
2022-11-23T09:50:55.071Z,100.00
2022-11-23T09:51:57.155Z,100.00
2022-11-23T09:53:07.712Z,100.00
2022-11-23T09:54:32.943Z,100.00
2022-11-23T09:55:43.612Z,100.00
2022-11-23T09:56:50.957Z,100.00
2022-11-23T09:58:01.537Z,100.00
2022-11-23T09:59:23.745Z,100.00
2022-11-23T10:00:38.943Z,100.00
2022-11-23T10:01:41.269Z,100.00
2022-11-23T10:02:43.860Z,100.00
2022-11-23T10:03:49.032Z,100.00
2022-11-23T10:04:54.027Z,100.00
2022-11-23T10:06:21.959Z,100.00
2022-11-23T10:07:54.794Z,100.00
2022-11-23T10:09:25.153Z,100.00
2022-11-23T10:10:56.852Z,100.00
2022-11-23T10:12:27.780Z,100.00
2022-11-23T10:13:41.763Z,100.00
2022-11-23T10:15:09.863Z,100.00
2022-11-23T10:16:36.629Z,100.00
2022-11-23T10:17:53.648Z,100.00
2022-11-23T10:19:21.299Z,100.00
2022-11-23T10:20:41.991Z,100.00
2022-11-23T10:22:03.905Z,100.00
2022-11-23T10:23:31.172Z,99.87
2022-11-23T10:24:44.100Z,99.55
2022-11-23T10:25:52.489Z,99.19
2022-11-23T10:26:54.312Z,99.61
2022-11-23T10:28:06.712Z,99.36
2022-11-23T10:29:22.875Z,99.32
2022-11-23T10:30:24.689Z,99.50
2022-11-23T10:31:29.980Z,99.28
2022-11-23T10:32:46.631Z,98.69
2022-11-23T10:34:11.833Z,97.21
2022-11-23T10:35:18.165Z,97.69
2022-11-23T10:36:20.025Z,97.51
2022-11-23T10:37:21.928Z,97.58
2022-11-23T10:38:28.693Z,97.35
2022-11-23T10:39:31.705Z,96.56
2022-11-23T10:40:35.626Z,95.29
2022-11-23T10:41:37.413Z,94.82
2022-11-23T10:42:47.281Z,94.20
2022-11-23T10:44:18.783Z,93.46
2022-11-23T10:45:23.988Z,92.70
2022-11-23T10:46:46.063Z,92.19
2022-11-23T10:47:58.984Z,91.66
2022-11-23T10:49:23.331Z,91.46
2022-11-23T10:50:37.712Z,91.29
2022-11-23T10:51:40.291Z,91.55
2022-11-23T10:52:52.026Z,91.52
2022-11-23T10:54:04.944Z,91.36
2022-11-23T10:55:09.268Z,92.09
2022-11-23T10:56:14.614Z,91.53
2022-11-23T10:57:33.059Z,91.72
2022-11-23T10:58:44.648Z,91.57
2022-11-23T11:00:17.532Z,91.93
2022-11-23T11:01:24.368Z,91.75
2022-11-23T11:02:26.826Z,90.99
2022-11-23T11:03:33.274Z,90.83
2022-11-23T11:04:35.408Z,91.02
2022-11-23T11:07:22.562Z,91.25
2022-11-23T11:08:31.119Z,91.10
2022-11-23T11:09:33.347Z,90.77
2022-11-23T11:10:42.704Z,90.34
2022-11-23T11:11:52.295Z,90.36
2022-11-23T11:12:54.096Z,90.34
2022-11-23T11:14:18.629Z,89.80
2022-11-23T11:15:20.458Z,89.71
2022-11-23T11:16:30.936Z,89.68
2022-11-23T11:17:34.831Z,89.55
2022-11-23T11:18:38.139Z,90.07
2022-11-23T11:19:39.892Z,90.61
2022-11-23T11:20:45.635Z,91.16
2022-11-23T11:21:47.858Z,91.51
2022-11-23T11:22:49.775Z,91.69
2022-11-23T11:24:19.914Z,91.94
2022-11-23T11:25:32.672Z,91.99
2022-11-23T11:26:36.071Z,92.01
2022-11-23T11:27:37.866Z,92.38
2022-11-23T11:28:47.166Z,92.50
2022-11-23T11:29:53.314Z,93.04
2022-11-23T11:31:25.113Z,93.36
2022-11-23T11:32:54.627Z,93.07
2022-11-23T11:34:08.602Z,93.18
2022-11-23T11:35:34.452Z,93.38
2022-11-23T11:36:46.060Z,93.45
2022-11-23T11:37:51.934Z,93.65
2022-11-23T11:39:17.762Z,93.59
2022-11-23T11:40:34.540Z,93.84
2022-11-23T11:41:38.295Z,94.17
2022-11-23T11:43:10.431Z,94.51
2022-11-23T11:44:26.092Z,94.80
2022-11-23T11:45:46.318Z,95.47
2022-11-23T11:47:20.020Z,95.35
2022-11-23T11:48:39.395Z,95.58
2022-11-23T11:49:48.131Z,95.80
2022-11-23T11:50:56.496Z,95.79
2022-11-23T11:52:15.271Z,95.18
2022-11-23T11:53:23.010Z,94.93
2022-11-23T11:54:51.952Z,94.43
2022-11-23T11:55:59.057Z,94.06
2022-11-23T11:57:12.063Z,93.82
2022-11-23T11:58:18.326Z,93.36
2022-11-23T11:59:31.314Z,93.41
2022-11-23T12:00:38.646Z,93.51
2022-11-23T12:01:58.977Z,93.66
2022-11-23T12:03:14.631Z,93.97
2022-11-23T12:04:25.858Z,94.43
2022-11-23T12:05:39.380Z,94.78
2022-11-23T12:06:54.666Z,94.98
2022-11-23T12:08:22.095Z,94.63
2022-11-23T12:09:31.943Z,94.33
2022-11-23T12:10:53.260Z,94.14
2022-11-23T12:11:55.134Z,94.36
2022-11-23T12:12:57.280Z,94.35
2022-11-23T12:14:03.516Z,94.25
2022-11-23T12:15:26.340Z,94.42
2022-11-23T12:17:17.024Z,94.16
2022-11-23T12:18:42.410Z,94.03
2022-11-23T12:19:56.347Z,94.14
2022-11-23T12:21:05.812Z,94.29
2022-11-23T12:22:42.684Z,94.52
2022-11-23T12:24:05.211Z,94.19
2022-11-23T12:25:24.597Z,93.95
2022-11-23T12:26:52.130Z,93.88
2022-11-23T12:28:20.523Z,94.18
2022-11-23T12:29:40.585Z,94.34
2022-11-23T12:31:06.473Z,94.52
2022-11-23T12:32:38.966Z,94.36
2022-11-23T12:34:19.498Z,94.47
2022-11-23T12:35:41.855Z,94.74
2022-11-23T12:37:23.627Z,94.90
2022-11-23T12:38:44.432Z,94.91
2022-11-23T12:39:57.709Z,94.78
2022-11-23T12:41:22.617Z,94.95
2022-11-23T12:42:37.814Z,94.62
2022-11-23T12:44:24.653Z,94.94
2022-11-23T12:45:51.757Z,95.00
2022-11-23T12:47:35.193Z,95.20
2022-11-23T12:48:45.128Z,95.17
2022-11-23T12:50:16.535Z,95.32
2022-11-23T12:52:09.147Z,95.77
2022-11-23T12:53:16.692Z,95.52
2022-11-23T12:54:49.356Z,95.48
2022-11-23T12:56:08.451Z,95.71
2022-11-23T12:57:22.914Z,95.77
2022-11-23T12:58:33.667Z,96.03
2022-11-23T12:59:45.093Z,96.06
2022-11-23T13:00:56.615Z,96.15
2022-11-23T13:02:13.436Z,96.33
2022-11-23T13:03:19.755Z,96.44
2022-11-23T13:05:02.944Z,96.36
2022-11-23T13:07:12.777Z,96.89
2022-11-23T13:08:25.707Z,96.72
2022-11-23T13:09:56.377Z,96.72
2022-11-23T13:11:30.721Z,96.45
2022-11-23T13:13:11.081Z,96.28
2022-11-23T13:14:46.639Z,96.57
2022-11-23T13:16:24.652Z,96.76
2022-11-23T13:18:16.163Z,97.32
2022-11-23T13:19:39.403Z,97.50
2022-11-23T13:21:21.408Z,97.50
2022-11-23T13:22:29.258Z,97.74
2022-11-23T13:23:38.779Z,97.82
2022-11-23T13:25:01.825Z,97.92
2022-11-23T13:26:23.060Z,97.90
2022-11-23T13:27:55.695Z,98.07
2022-11-23T13:29:00.802Z,98.30
2022-11-23T13:30:51.927Z,98.17
2022-11-23T13:32:33.007Z,98.19
2022-11-23T13:33:38.803Z,98.33
2022-11-23T13:34:46.345Z,98.44
2022-11-23T13:35:54.094Z,98.38
2022-11-23T13:37:16.304Z,98.58
2022-11-23T13:38:24.391Z,98.78
2022-11-23T13:39:44.211Z,98.89
2022-11-23T13:40:46.451Z,99.04
2022-11-23T13:41:54.388Z,98.95
2022-11-23T13:43:20.483Z,98.88
2022-11-23T13:44:26.811Z,99.00
2022-11-23T13:45:36.847Z,99.21
2022-11-23T13:46:39.171Z,99.44
2022-11-23T13:47:43.867Z,99.45
2022-11-23T13:48:56.891Z,99.53
2022-11-23T13:50:19.547Z,99.59
2022-11-23T13:51:26.534Z,99.44
2022-11-23T13:52:31.154Z,99.72
2022-11-23T13:53:43.029Z,99.96
2022-11-23T13:55:07.501Z,99.98
2022-11-23T13:56:23.431Z,100.00
2022-11-23T13:57:25.278Z,100.00
2022-11-23T13:58:26.962Z,100.00
2022-11-23T13:59:33.436Z,100.00
2022-11-23T14:00:49.071Z,100.00
2022-11-23T14:01:59.987Z,100.00
2022-11-23T14:03:43.225Z,100.00
2022-11-23T14:04:49.810Z,100.00
2022-11-23T14:06:01.561Z,100.00
2022-11-23T14:07:25.372Z,100.00
2022-11-23T14:08:29.044Z,100.00
2022-11-23T14:09:45.141Z,100.00
2022-11-23T14:10:50.531Z,100.00
2022-11-23T14:12:12.246Z,100.00